createdAt,value
2022-08-11T00:04:20.911Z,7725.4541
2022-08-11T00:20:14.565Z,11521.29883
2022-08-11T00:35:53.613Z,6902.50439
2022-08-11T00:50:59.920Z,11786.8916
2022-08-11T01:06:02.973Z,1368.67517
2022-08-11T01:21:06.803Z,4104.08691
2022-08-11T01:36:09.039Z,3008.75903
2022-08-11T01:51:15.109Z,942.17584
2022-08-11T02:06:19.960Z,750.25116
2022-08-11T02:21:22.311Z,346.04608
2022-08-11T02:36:24.604Z,423.5914
2022-08-11T02:51:26.770Z,192.89403
2022-08-11T03:06:29.007Z,60.09764
2022-08-11T03:22:01.649Z,23.2636
2022-08-11T03:37:17.083Z,2.90795
2022-08-11T03:52:20.527Z,0
2022-08-11T04:07:22.860Z,0
2022-08-11T04:22:25.100Z,0
2022-08-11T04:37:27.327Z,0
2022-08-11T04:52:38.076Z,0
2022-08-11T05:07:40.845Z,0
2022-08-11T05:22:43.513Z,0
2022-08-11T05:37:45.956Z,0
2022-08-11T05:52:55.494Z,0
2022-08-11T06:07:59.912Z,0
2022-08-11T06:23:02.180Z,0
2022-08-11T06:38:04.421Z,0
2022-08-11T06:53:06.618Z,0
2022-08-11T07:08:35.075Z,0
2022-08-11T07:23:37.954Z,0
2022-08-11T07:38:40.136Z,0
2022-08-11T07:54:16.205Z,0
2022-08-11T08:09:19.688Z,0
2022-08-11T08:24:21.923Z,0
2022-08-11T08:39:24.439Z,0
2022-08-11T08:54:26.737Z,0
2022-08-11T09:09:28.924Z,0
2022-08-11T09:24:31.144Z,0
2022-08-11T09:39:33.458Z,0
2022-08-11T09:54:35.761Z,0
2022-08-11T10:09:37.929Z,0
2022-08-11T10:24:40.138Z,0
2022-08-11T10:39:42.440Z,0
2022-08-11T10:54:44.795Z,0
2022-08-11T11:09:46.966Z,0
2022-08-11T11:24:54.951Z,0
2022-08-11T11:39:57.300Z,0
2022-08-11T11:54:59.511Z,0
2022-08-11T12:10:01.796Z,0
2022-08-11T12:25:04.134Z,4.84658
2022-08-11T12:40:16.867Z,16.47838
2022-08-11T12:56:03.652Z,65.91354
2022-08-11T13:11:10.251Z,115.34869
2022-08-11T13:26:12.455Z,203.55652
2022-08-11T13:41:14.656Z,386.75739
2022-08-11T13:56:16.833Z,768.66815
2022-08-11T14:12:19.792Z,8162.61621
2022-08-11T14:28:32.156Z,2076.27637
2022-08-11T14:44:12.696Z,2819.74243
2022-08-11T14:59:16.706Z,2122.80371
2022-08-11T15:14:18.991Z,1686.61108
2022-08-11T15:29:23.519Z,2963.20117
2022-08-11T15:44:44.566Z,4287.28809
2022-08-11T16:00:03.230Z,6300.55859
2022-08-11T16:15:05.470Z,5969.05225
2022-08-11T16:30:07.647Z,6122.20459
2022-08-11T16:45:09.884Z,5844.97998
2022-08-11T17:00:12.121Z,5986.5
2022-08-11T17:15:14.345Z,6098.94092
2022-08-11T17:30:16.530Z,5963.23633
2022-08-11T17:45:18.763Z,5470.82373
2022-08-11T18:00:21.214Z,5607.49707
2022-08-11T18:15:23.526Z,6192.96436
2022-08-11T18:30:34.067Z,5901.2002
2022-08-11T18:45:45.549Z,5603.62012
2022-08-11T19:00:48.825Z,5537.70654
2022-08-11T19:15:51.134Z,5453.37598
2022-08-11T19:30:53.469Z,5151.91846
2022-08-11T19:45:55.831Z,5197.47607
2022-08-11T20:00:58.090Z,5631.72998
2022-08-11T20:16:00.320Z,5420.41895
2022-08-11T20:31:02.484Z,6210.41211
2022-08-11T20:46:04.700Z,5697.64355
2022-08-11T21:01:20.231Z,5725.75391
2022-08-11T21:16:27.417Z,6346.1167
2022-08-11T21:31:29.902Z,7674.08057
2022-08-11T21:46:33.769Z,10034.36621
2022-08-11T22:01:38.626Z,11622.10742
2022-08-11T22:16:40.894Z,4359.98682
2022-08-11T22:31:43.095Z,2248.8147
2022-08-11T22:46:45.536Z,6641.7583
2022-08-11T23:01:56.191Z,15941.38281
2022-08-11T23:16:59.999Z,16155.60156
2022-08-11T23:32:02.220Z,1195.16748
2022-08-11T23:47:04.616Z,1106.95972
